Time;durP1;ratioP1;P1;durP2;ratioP2;P2;SDS_P1;SDS_P2;PMS_P1;PMS_P2;Temp;Humidity;BMP_temperature;BMP_pressure;BME280_temperature;BME280_humidity;BME280_pressure;Samples;Min_cycle;Max_cycle;Signal;HPM_P1;HPM_P2
2021/09/03 00:00:00;;;;;;;;;;;11.40;90.70;;;;;;5040147;28;19983;-65
2021/09/03 00:02:26;;;;;;;;;;;11.40;90.60;;;;;;5022781;28;20436;-64
2021/09/03 00:04:52;;;;;;;;;;;11.40;90.80;;;;;;5040670;28;19974;-64
2021/09/03 00:07:17;;;;;;;;;;;11.40;90.80;;;;;;5038236;28;19917;-64
2021/09/03 00:09:43;;;;;;;;;;;11.30;90.80;;;;;;5038660;28;20051;-65
2021/09/03 00:12:09;;;;;;;;;;;11.30;90.90;;;;;;5040748;28;19917;-65
2021/09/03 00:14:35;;;;;;;;;;;11.30;91.00;;;;;;5031577;28;19928;-66
2021/09/03 00:17:01;;;;;;;;;;;11.30;91.00;;;;;;5049936;28;19917;-65
2021/09/03 00:19:26;;;;;;;;;;;11.20;91.00;;;;;;5051258;28;19923;-66
2021/09/03 00:21:52;;;;;;;;;;;11.20;91.00;;;;;;5032535;28;19920;-64
2021/09/03 00:24:19;;;;;;;;;;;11.20;91.00;;;;;;5049736;28;20391;-63
2021/09/03 00:26:44;;;;;;;;;;;11.20;91.00;;;;;;5050407;28;20076;-65
2021/09/03 00:29:10;;;;;;;;;;;11.10;91.00;;;;;;5032888;28;19913;-65
2021/09/03 00:31:35;;;;;;;;;;;11.10;91.10;;;;;;5050689;28;19924;-65
2021/09/03 00:34:01;;;;;;;;;;;11.10;91.20;;;;;;5033226;28;20384;-65
2021/09/03 00:36:26;;;;;;;;;;;11.00;91.20;;;;;;5050549;28;19923;-64
2021/09/03 00:38:52;;;;;;;;;;;11.00;91.20;;;;;;5050744;28;20262;-66
2021/09/03 00:41:17;;;;;;;;;;;11.00;91.30;;;;;;5050280;28;19952;-65
2021/09/03 00:43:44;;;;;;;;;;;11.00;91.30;;;;;;5050665;28;20007;-64
2021/09/03 00:46:09;;;;;;;;;;;11.00;91.30;;;;;;5051072;28;19917;-65
2021/09/03 00:48:35;;;;;;;;;;;11.00;91.30;;;;;;5032028;28;19940;-64
2021/09/03 00:51:00;;;;;;;;;;;11.00;91.30;;;;;;5050293;28;19940;-66
2021/09/03 00:53:27;;;;;;;;;;;10.90;91.40;;;;;;5051046;28;19940;-64
2021/09/03 00:55:53;;;;;;;;;;;10.90;91.40;;;;;;5050381;28;20380;-64
2021/09/03 00:58:21;;;;;;;;;;;10.90;91.40;;;;;;5050559;28;19923;-66
2021/09/03 01:00:49;;;;;;;;;;;10.90;91.40;;;;;;5033231;28;19921;-66
2021/09/03 01:03:15;;;;;;;;;;;10.80;91.50;;;;;;5050854;28;19928;-65
2021/09/03 01:05:41;;;;;;;;;;;10.80;91.50;;;;;;5054155;28;19921;-66
2021/09/03 01:08:07;;;;;;;;;;;10.80;91.50;;;;;;5053552;28;19923;-64
2021/09/03 01:10:33;;;;;;;;;;;10.80;91.60;;;;;;5054256;28;19924;-65
2021/09/03 01:12:58;;;;;;;;;;;10.70;91.60;;;;;;5035813;28;19913;-65
2021/09/03 01:15:24;;;;;;;;;;;10.70;91.60;;;;;;5053611;28;20416;-64
2021/09/03 01:17:50;;;;;;;;;;;10.70;91.60;;;;;;5003041;28;19917;-64
2021/09/03 01:20:15;;;;;;;;;;;10.70;91.60;;;;;;5054092;28;19920;-64
2021/09/03 01:22:41;;;;;;;;;;;10.70;91.70;;;;;;5052784;28;19925;-64
2021/09/03 01:25:07;;;;;;;;;;;10.70;91.70;;;;;;5054092;28;19917;-63
2021/09/03 01:27:32;;;;;;;;;;;10.70;91.80;;;;;;5053294;28;19921;-65
2021/09/03 01:29:58;;;;;;;;;;;10.60;91.80;;;;;;5054038;28;19917;-65
2021/09/03 01:32:23;;;;;;;;;;;10.60;91.80;;;;;;5053272;28;19978;-64
2021/09/03 01:34:49;;;;;;;;;;;10.60;91.80;;;;;;5053447;28;19921;-64
2021/09/03 01:37:14;;;;;;;;;;;10.60;91.90;;;;;;5053604;28;19917;-66
2021/09/03 01:39:40;;;;;;;;;;;10.60;91.90;;;;;;5035868;28;19924;-65
2021/09/03 01:42:05;;;;;;;;;;;10.60;91.90;;;;;;5052579;28;19929;-64
2021/09/03 01:44:31;;;;;;;;;;;10.50;91.90;;;;;;5053545;28;19920;-66
2021/09/03 01:46:57;;;;;;;;;;;10.50;91.90;;;;;;5052756;28;19917;-66
2021/09/03 01:49:22;;;;;;;;;;;10.50;91.90;;;;;;5053543;28;19939;-66
2021/09/03 01:51:48;;;;;;;;;;;10.50;92.00;;;;;;5053038;28;20392;-66
2021/09/03 01:54:13;;;;;;;;;;;10.50;92.00;;;;;;5052873;28;19998;-66
2021/09/03 01:56:39;;;;;;;;;;;10.40;92.00;;;;;;5053426;28;19913;-65
2021/09/03 01:59:05;;;;;;;;;;;10.50;92.10;;;;;;5053220;28;19921;-64
2021/09/03 02:01:30;;;;;;;;;;;10.40;92.10;;;;;;5052078;28;19943;-64
2021/09/03 02:03:56;;;;;;;;;;;10.40;92.10;;;;;;5053311;28;19970;-66
2021/09/03 02:06:21;;;;;;;;;;;10.40;92.20;;;;;;5053283;28;20388;-66
2021/09/03 02:08:47;;;;;;;;;;;10.40;92.10;;;;;;5052397;28;19967;-64
2021/09/03 02:11:13;;;;;;;;;;;10.40;92.20;;;;;;5052661;28;19991;-65
2021/09/03 02:13:39;;;;;;;;;;;10.40;92.20;;;;;;5052609;28;19917;-65
2021/09/03 02:16:04;;;;;;;;;;;10.40;92.30;;;;;;5034702;28;20015;-65
2021/09/03 02:18:30;;;;;;;;;;;10.40;92.30;;;;;;5052588;28;20342;-65
2021/09/03 02:20:56;;;;;;;;;;;10.40;92.30;;;;;;5033925;28;19924;-64
2021/09/03 02:23:21;;;;;;;;;;;10.40;92.30;;;;;;5052829;28;20055;-64
2021/09/03 02:25:47;;;;;;;;;;;10.40;92.30;;;;;;5052882;28;19956;-64
2021/09/03 02:28:14;;;;;;;;;;;10.40;92.30;;;;;;5052102;28;19982;-64
2021/09/03 02:30:40;;;;;;;;;;;10.40;92.40;;;;;;5052728;28;19964;-64
2021/09/03 02:33:05;;;;;;;;;;;10.40;92.50;;;;;;5052234;28;19924;-65
2021/09/03 02:35:31;;;;;;;;;;;10.50;92.70;;;;;;5034383;28;20299;-64
2021/09/03 02:37:57;;;;;;;;;;;10.50;92.80;;;;;;5034447;28;19916;-65
2021/09/03 02:40:23;;;;;;;;;;;10.60;92.90;;;;;;5052111;28;19925;-64
2021/09/03 02:42:49;;;;;;;;;;;10.70;93.10;;;;;;5051690;28;20007;-64
2021/09/03 02:45:14;;;;;;;;;;;10.80;93.20;;;;;;5052535;28;19952;-64
2021/09/03 02:47:40;;;;;;;;;;;10.90;93.20;;;;;;5051584;28;19975;-65
2021/09/03 02:50:06;;;;;;;;;;;11.00;93.20;;;;;;5034537;28;19916;-66
2021/09/03 02:52:32;;;;;;;;;;;11.10;93.20;;;;;;5051978;28;19925;-65
2021/09/03 02:54:57;;;;;;;;;;;11.20;93.30;;;;;;5051849;28;20452;-65
2021/09/03 02:57:23;;;;;;;;;;;11.30;93.30;;;;;;5051869;28;19963;-65
2021/09/03 02:59:48;;;;;;;;;;;11.40;93.30;;;;;;5034167;28;19967;-65
2021/09/03 03:02:14;;;;;;;;;;;11.50;93.30;;;;;;5051982;28;20027;-65
2021/09/03 03:04:40;;;;;;;;;;;11.60;93.40;;;;;;5033951;28;20296;-65
2021/09/03 03:07:05;;;;;;;;;;;11.70;93.40;;;;;;5034544;28;20412;-65
2021/09/03 03:09:31;;;;;;;;;;;11.70;93.60;;;;;;5032079;28;20012;-65
2021/09/03 03:11:56;;;;;;;;;;;11.70;93.50;;;;;;5032019;28;20393;-65
2021/09/03 03:14:28;;;;;;;;;;;11.80;93.50;;;;;;5023316;28;19929;-66
2021/09/03 03:16:54;;;;;;;;;;;11.90;93.50;;;;;;5017958;28;20265;-64
2021/09/03 03:19:20;;;;;;;;;;;12.00;93.60;;;;;;5033485;28;19924;-64
2021/09/03 03:21:46;;;;;;;;;;;12.10;93.60;;;;;;5051065;28;19913;-65
2021/09/03 03:24:11;;;;;;;;;;;12.20;93.60;;;;;;5051770;28;19917;-65
2021/09/03 03:26:37;;;;;;;;;;;12.30;93.70;;;;;;5032566;28;19933;-65
2021/09/03 03:29:03;;;;;;;;;;;12.30;93.70;;;;;;5051700;28;19963;-66
2021/09/03 03:31:32;;;;;;;;;;;12.40;93.70;;;;;;5033033;28;19924;-66
2021/09/03 03:33:58;;;;;;;;;;;12.50;93.70;;;;;;5051629;28;20547;-65
2021/09/03 03:36:23;;;;;;;;;;;12.50;93.70;;;;;;5051696;28;19917;-64
2021/09/03 03:38:49;;;;;;;;;;;12.60;93.70;;;;;;5050868;28;19953;-66
2021/09/03 03:41:14;;;;;;;;;;;12.70;93.70;;;;;;5033308;28;19924;-65
2021/09/03 03:43:40;;;;;;;;;;;12.70;93.70;;;;;;5051735;28;19921;-64
2021/09/03 03:46:05;;;;;;;;;;;12.80;93.70;;;;;;5051151;28;19921;-65
2021/09/03 03:48:31;;;;;;;;;;;12.80;93.70;;;;;;5033629;28;20425;-64
2021/09/03 03:50:56;;;;;;;;;;;12.90;93.70;;;;;;5050646;28;19927;-64
2021/09/03 03:53:22;;;;;;;;;;;12.90;93.70;;;;;;5051473;28;19920;-65
2021/09/03 03:55:48;;;;;;;;;;;13.00;93.80;;;;;;5051773;28;20393;-65
2021/09/03 03:58:13;;;;;;;;;;;13.00;93.80;;;;;;5050964;28;20442;-65
2021/09/03 04:00:39;;;;;;;;;;;13.00;93.70;;;;;;5051426;28;20481;-65
2021/09/03 04:03:04;;;;;;;;;;;13.10;93.60;;;;;;5072573;22;20392;-62
2021/09/03 04:05:30;;;;;;;;;;;13.10;93.80;;;;;;5050333;28;20368;-62
2021/09/03 04:07:55;;;;;;;;;;;13.20;93.80;;;;;;5051013;28;19923;-63
2021/09/03 04:10:22;;;;;;;;;;;13.20;93.70;;;;;;5051196;28;19913;-62
2021/09/03 04:12:49;;;;;;;;;;;13.20;93.80;;;;;;5050823;28;19962;-62
2021/09/03 04:15:14;;;;;;;;;;;13.30;93.80;;;;;;5050658;28;19925;-62
2021/09/03 04:17:40;;;;;;;;;;;13.30;93.80;;;;;;5033430;28;19917;-62
2021/09/03 04:20:05;;;;;;;;;;;13.30;93.80;;;;;;5050807;28;20353;-62
2021/09/03 04:22:31;;;;;;;;;;;13.30;93.80;;;;;;5033364;28;20377;-63
2021/09/03 04:24:56;;;;;;;;;;;13.30;93.80;;;;;;5021533;28;20008;-62
2021/09/03 04:27:22;;;;;;;;;;;13.40;93.80;;;;;;5010877;28;20373;-61
2021/09/03 04:29:48;;;;;;;;;;;13.40;93.80;;;;;;5011496;28;19924;-61
2021/09/03 04:32:13;;;;;;;;;;;13.50;93.70;;;;;;5010929;28;19917;-62
2021/09/03 04:34:39;;;;;;;;;;;13.50;93.80;;;;;;5023119;28;20415;-61
2021/09/03 04:37:06;;;;;;;;;;;13.50;93.80;;;;;;5030561;28;20369;-61
2021/09/03 04:39:33;;;;;;;;;;;13.50;93.80;;;;;;5015626;28;20132;-61
2021/09/03 04:41:59;;;;;;;;;;;13.60;93.70;;;;;;5034275;28;19917;-61
2021/09/03 04:44:24;;;;;;;;;;;13.60;93.80;;;;;;5033151;28;19917;-62
2021/09/03 04:46:50;;;;;;;;;;;13.60;94.10;;;;;;5034049;28;20004;-62
2021/09/03 04:49:15;;;;;;;;;;;13.70;93.80;;;;;;5034746;28;19932;-62
2021/09/03 04:51:41;;;;;;;;;;;13.70;93.60;;;;;;5033359;28;19917;-62
2021/09/03 04:54:06;;;;;;;;;;;13.70;93.80;;;;;;5034523;28;20032;-62
2021/09/03 04:56:32;;;;;;;;;;;13.70;93.80;;;;;;5016980;28;19921;-61
2021/09/03 04:58:58;;;;;;;;;;;13.80;93.80;;;;;;5016363;28;19963;-62
2021/09/03 05:01:23;;;;;;;;;;;13.90;93.70;;;;;;5025559;28;20374;-62
2021/09/03 05:03:49;;;;;;;;;;;13.80;94.00;;;;;;5014203;28;19926;-61
2021/09/03 05:06:15;;;;;;;;;;;13.90;93.80;;;;;;4997114;28;20340;-61
2021/09/03 05:08:41;;;;;;;;;;;14.00;93.80;;;;;;5018971;28;19967;-62
2021/09/03 05:11:07;;;;;;;;;;;14.00;93.70;;;;;;5033854;28;19917;-62
2021/09/03 05:13:32;;;;;;;;;;;13.90;93.50;;;;;;5016606;28;19970;-61
2021/09/03 05:15:58;;;;;;;;;;;14.10;93.80;;;;;;5034614;28;19921;-61
2021/09/03 05:18:23;;;;;;;;;;;14.10;93.80;;;;;;5015893;28;19929;-62
2021/09/03 05:20:49;;;;;;;;;;;14.20;93.70;;;;;;5034315;28;19917;-62
2021/09/03 05:23:14;;;;;;;;;;;14.10;93.40;;;;;;5016507;28;19917;-62
2021/09/03 05:25:40;;;;;;;;;;;14.20;93.70;;;;;;5033552;28;19928;-62
2021/09/03 05:28:05;;;;;;;;;;;14.20;93.60;;;;;;5033614;28;19923;-62
2021/09/03 05:30:31;;;;;;;;;;;14.30;93.70;;;;;;5033722;28;19939;-63
2021/09/03 05:32:56;;;;;;;;;;;14.40;93.50;;;;;;5026988;28;19921;-62
2021/09/03 05:35:27;;;;;;;;;;;14.40;93.60;;;;;;5013904;28;20012;-63
2021/09/03 05:37:53;;;;;;;;;;;14.40;93.50;;;;;;5012309;28;19924;-63
2021/09/03 05:40:18;;;;;;;;;;;14.50;93.50;;;;;;5014362;28;19952;-63
2021/09/03 05:42:44;;;;;;;;;;;14.50;93.30;;;;;;4996465;28;19948;-62
2021/09/03 05:45:10;;;;;;;;;;;14.50;93.50;;;;;;5014075;28;20347;-64
2021/09/03 05:47:40;;;;;;;;;;;14.60;93.50;;;;;;5035623;28;19927;-63
2021/09/03 05:50:06;;;;;;;;;;;14.60;93.50;;;;;;5014634;28;19921;-65
2021/09/03 05:52:31;;;;;;;;;;;14.70;93.20;;;;;;5013894;28;20320;-64
2021/09/03 05:54:57;;;;;;;;;;;14.70;93.40;;;;;;4996584;28;20480;-64
2021/09/03 05:57:22;;;;;;;;;;;14.80;93.40;;;;;;4995482;28;19956;-65
2021/09/03 05:59:49;;;;;;;;;;;14.80;93.20;;;;;;4996360;28;19917;-64
2021/09/03 06:02:14;;;;;;;;;;;14.90;93.10;;;;;;4998756;28;19971;-64
2021/09/03 06:04:40;;;;;;;;;;;14.90;93.20;;;;;;4995647;28;20012;-66
2021/09/03 06:07:05;;;;;;;;;;;15.00;93.30;;;;;;5013301;28;19996;-65
2021/09/03 06:09:31;;;;;;;;;;;15.10;93.20;;;;;;4996038;28;20374;-64
2021/09/03 06:11:57;;;;;;;;;;;15.30;93.00;;;;;;4997371;28;19918;-64
2021/09/03 06:14:23;;;;;;;;;;;15.30;93.10;;;;;;4995408;28;19922;-64
2021/09/03 06:16:49;;;;;;;;;;;15.40;93.10;;;;;;5022502;28;19917;-66
2021/09/03 06:19:15;;;;;;;;;;;15.40;93.00;;;;;;4994659;28;19925;-65
2021/09/03 06:21:40;;;;;;;;;;;15.50;92.60;;;;;;4995560;28;19955;-65
2021/09/03 06:24:27;;;;;;;;;;;15.50;92.70;;;;;;4995479;28;19949;-63
2021/09/03 06:26:51;;;;;;;;;;;15.60;92.70;;;;;;5012860;28;19928;-65
2021/09/03 06:29:37;;;;;;;;;;;15.60;92.60;;;;;;5012646;28;19996;-65
2021/09/03 06:32:23;;;;;;;;;;;15.70;92.40;;;;;;5015426;28;19924;-66
2021/09/03 06:34:48;;;;;;;;;;;15.70;92.60;;;;;;4994870;28;19921;-64
2021/09/03 06:37:14;;;;;;;;;;;15.80;92.50;;;;;;5015234;28;20016;-65
2021/09/03 06:39:40;;;;;;;;;;;15.90;92.40;;;;;;4996148;28;19922;-64
2021/09/03 06:42:10;;;;;;;;;;;15.90;91.90;;;;;;5015970;28;20004;-66
2021/09/03 06:44:37;;;;;;;;;;;16.00;92.00;;;;;;5013093;28;19925;-67
2021/09/03 06:47:03;;;;;;;;;;;15.90;91.80;;;;;;5011767;28;19925;-65
2021/09/03 06:49:29;;;;;;;;;;;15.90;91.90;;;;;;5012950;28;20378;-65
2021/09/03 06:51:55;;;;;;;;;;;15.90;92.00;;;;;;4994351;28;19925;-65
2021/09/03 06:54:20;;;;;;;;;;;16.00;92.00;;;;;;4993612;28;19976;-65
2021/09/03 06:56:46;;;;;;;;;;;16.00;92.00;;;;;;5011291;28;20052;-65
2021/09/03 06:59:12;;;;;;;;;;;16.10;91.80;;;;;;4993923;28;19925;-65
2021/09/03 07:01:37;;;;;;;;;;;16.20;91.80;;;;;;5014956;28;19925;-67
2021/09/03 07:04:03;;;;;;;;;;;16.20;91.50;;;;;;5027739;28;19924;-65
2021/09/03 07:06:29;;;;;;;;;;;16.20;91.60;;;;;;5031985;28;19917;-65
2021/09/03 07:08:54;;;;;;;;;;;16.20;91.60;;;;;;5005765;28;19967;-65
2021/09/03 07:11:20;;;;;;;;;;;16.30;91.50;;;;;;5011192;28;19921;-65
2021/09/03 07:13:46;;;;;;;;;;;16.40;91.50;;;;;;5029095;28;19917;-66
2021/09/03 07:16:11;;;;;;;;;;;16.40;91.40;;;;;;5006598;28;20405;-66
2021/09/03 07:18:37;;;;;;;;;;;16.50;91.40;;;;;;5004496;28;20439;-65
2021/09/03 07:21:02;;;;;;;;;;;16.60;91.20;;;;;;5030197;28;19917;-65
2021/09/03 07:23:28;;;;;;;;;;;16.70;91.20;;;;;;5030447;28;19917;-66
2021/09/03 07:25:53;;;;;;;;;;;16.80;91.20;;;;;;5030282;28;19967;-66
2021/09/03 07:28:19;;;;;;;;;;;16.90;91.20;;;;;;5013397;28;20409;-67
2021/09/03 07:30:45;;;;;;;;;;;17.10;91.40;;;;;;5031712;28;19916;-66
2021/09/03 07:33:10;;;;;;;;;;;17.60;91.90;;;;;;5031043;28;19917;-67
2021/09/03 07:35:36;;;;;;;;;;;17.90;91.00;;;;;;5014033;28;20389;-67
2021/09/03 07:38:02;;;;;;;;;;;18.10;90.60;;;;;;5030184;28;19917;-66
2021/09/03 07:40:28;;;;;;;;;;;18.40;90.80;;;;;;5031563;28;20011;-66
2021/09/03 07:42:54;;;;;;;;;;;18.80;90.50;;;;;;5031473;28;20020;-67
2021/09/03 07:45:19;;;;;;;;;;;19.00;89.40;;;;;;5013585;28;20552;-67
2021/09/03 07:47:45;;;;;;;;;;;19.10;88.70;;;;;;5012605;28;19956;-67
2021/09/03 07:50:10;;;;;;;;;;;19.30;89.00;;;;;;5011901;28;20325;-66
2021/09/03 07:52:36;;;;;;;;;;;19.60;88.90;;;;;;5011112;28;20377;-67
2021/09/03 07:55:02;;;;;;;;;;;20.00;87.10;;;;;;5011590;28;20380;-65
2021/09/03 07:57:28;;;;;;;;;;;20.40;85.30;;;;;;5014870;28;19968;-66
2021/09/03 07:59:53;;;;;;;;;;;20.90;86.90;;;;;;5020656;28;20378;-67
2021/09/03 08:02:19;;;;;;;;;;;22.10;86.50;;;;;;5020792;28;19928;-66
2021/09/03 08:04:45;;;;;;;;;;;22.80;83.30;;;;;;5019276;28;19948;-67
2021/09/03 08:07:10;;;;;;;;;;;24.10;83.00;;;;;;5022706;28;19918;-67
2021/09/03 08:09:36;;;;;;;;;;;24.30;77.50;;;;;;5027518;28;19923;-67
2021/09/03 08:12:02;;;;;;;;;;;23.90;74.20;;;;;;5030698;28;19917;-67
2021/09/03 08:14:28;;;;;;;;;;;23.20;73.20;;;;;;5028312;28;19975;-66
2021/09/03 08:16:53;;;;;;;;;;;22.50;71.30;;;;;;5006382;28;19924;-67
2021/09/03 08:19:19;;;;;;;;;;;21.90;72.60;;;;;;5025299;28;20248;-66
2021/09/03 08:21:45;;;;;;;;;;;21.50;71.80;;;;;;5006552;28;20393;-67
2021/09/03 08:24:11;;;;;;;;;;;21.20;72.60;;;;;;5028988;28;20377;-65
2021/09/03 08:26:38;;;;;;;;;;;21.10;74.50;;;;;;5030372;28;20012;-66
2021/09/03 08:29:03;;;;;;;;;;;21.10;73.00;;;;;;5034790;28;19917;-66
2021/09/03 08:31:29;;;;;;;;;;;22.10;78.30;;;;;;5034887;28;19944;-67
2021/09/03 08:33:55;;;;;;;;;;;23.30;75.50;;;;;;5034527;28;19924;-65
2021/09/03 08:36:20;;;;;;;;;;;23.50;70.90;;;;;;5034846;28;20380;-67
2021/09/03 08:38:46;;;;;;;;;;;23.30;69.10;;;;;;5034006;28;19948;-66
2021/09/03 08:41:12;;;;;;;;;;;23.30;68.70;;;;;;5034697;28;19921;-67
2021/09/03 08:43:37;;;;;;;;;;;23.90;70.50;;;;;;5034833;28;20350;-69
2021/09/03 08:46:05;;;;;;;;;;;26.20;74.50;;;;;;5034320;28;19917;-68
2021/09/03 08:48:31;;;;;;;;;;;29.00;72.30;;;;;;5028068;28;20271;-68
2021/09/03 08:50:57;;;;;;;;;;;31.40;66.40;;;;;;5005752;28;19944;-68
2021/09/03 08:53:23;;;;;;;;;;;32.60;60.20;;;;;;5003505;28;19925;-68
2021/09/03 08:55:50;;;;;;;;;;;32.90;56.90;;;;;;5007098;28;19944;-68
2021/09/03 08:58:16;;;;;;;;;;;33.20;53.30;;;;;;5005743;28;19921;-68
2021/09/03 09:00:42;;;;;;;;;;;32.60;50.20;;;;;;5020957;28;19924;-68
2021/09/03 09:03:13;;;;;;;;;;;32.70;50.20;;;;;;5019106;28;19921;-68
2021/09/03 09:05:45;;;;;;;;;;;33.30;49.40;;;;;;5022300;28;20264;-68
2021/09/03 09:08:11;;;;;;;;;;;33.20;46.80;;;;;;5020616;28;19925;-67
2021/09/03 09:10:44;;;;;;;;;;;32.90;46.20;;;;;;5001932;28;19921;-68
2021/09/03 09:13:16;;;;;;;;;;;32.60;46.20;;;;;;5001347;28;19918;-67
2021/09/03 09:15:42;;;;;;;;;;;32.30;45.00;;;;;;5021957;28;20392;-67
2021/09/03 09:18:08;;;;;;;;;;;33.00;48.00;;;;;;5002347;28;19918;-68
2021/09/03 09:20:34;;;;;;;;;;;33.50;45.00;;;;;;5019910;28;19925;-65
2021/09/03 09:23:04;;;;;;;;;;;33.20;43.70;;;;;;5022210;28;20063;-67
2021/09/03 09:25:29;;;;;;;;;;;32.60;42.90;;;;;;5020894;28;20620;-67
2021/09/03 09:28:13;;;;;;;;;;;32.80;44.10;;;;;;5018199;28;19920;-67
2021/09/03 09:30:40;;;;;;;;;;;33.10;43.40;;;;;;5019414;28;20393;-68
2021/09/03 09:33:16;;;;;;;;;;;33.70;42.80;;;;;;5020342;28;19917;-68
2021/09/03 09:35:51;;;;;;;;;;;34.20;42.10;;;;;;5020655;28;19963;-67
2021/09/03 09:38:27;;;;;;;;;;;35.30;41.80;;;;;;5022444;28;19918;-67
2021/09/03 09:40:53;;;;;;;;;;;36.60;41.50;;;;;;5023347;28;19917;-67
2021/09/03 09:43:29;;;;;;;;;;;37.90;39.90;;;;;;5003506;28;19917;-68
2021/09/03 09:46:14;;;;;;;;;;;39.10;39.20;;;;;;5020988;28;20365;-68
2021/09/03 09:48:49;;;;;;;;;;;40.10;37.70;;;;;;5005364;28;19971;-67
2021/09/03 09:51:38;;;;;;;;;;;40.80;35.40;;;;;;5020852;28;20012;-68
2021/09/03 09:54:11;;;;;;;;;;;40.50;33.40;;;;;;4996486;28;19924;-67
2021/09/03 09:56:46;;;;;;;;;;;40.40;33.10;;;;;;5020719;28;19921;-68
2021/09/03 09:59:12;;;;;;;;;;;39.90;33.00;;;;;;5020847;28;19935;-67
2021/09/03 10:01:39;;;;;;;;;;;40.20;33.00;;;;;;4961595;28;1747566;-67
2021/09/03 10:04:06;;;;;;;;;;;40.10;32.30;;;;;;5067629;22;20391;-63
2021/09/03 10:06:33;;;;;;;;;;;40.00;31.80;;;;;;5061699;28;20291;-64
2021/09/03 10:08:59;;;;;;;;;;;39.80;31.40;;;;;;5063273;28;20394;-65
2021/09/03 10:11:26;;;;;;;;;;;39.80;31.40;;;;;;5061665;28;19916;-64
2021/09/03 10:13:52;;;;;;;;;;;39.90;31.80;;;;;;5062068;28;19944;-65
2021/09/03 10:16:18;;;;;;;;;;;40.50;31.80;;;;;;5063416;28;20301;-65
2021/09/03 10:18:44;;;;;;;;;;;40.30;30.00;;;;;;5061016;28;20007;-66
2021/09/03 10:21:10;;;;;;;;;;;40.10;31.10;;;;;;5062087;28;19917;-65
2021/09/03 10:23:49;;;;;;;;;;;40.50;30.70;;;;;;5063275;28;19921;-65
2021/09/03 10:26:16;;;;;;;;;;;40.80;30.60;;;;;;5061785;28;20340;-65
2021/09/03 10:28:42;;;;;;;;;;;40.50;30.30;;;;;;5058285;28;19916;-64
2021/09/03 10:31:08;;;;;;;;;;;40.30;30.70;;;;;;5040812;28;20386;-64
2021/09/03 10:33:35;;;;;;;;;;;40.30;30.60;;;;;;5058391;28;19967;-66
2021/09/03 10:36:01;;;;;;;;;;;40.80;30.30;;;;;;5027050;28;19925;-63
2021/09/03 10:38:30;;;;;;;;;;;41.10;29.40;;;;;;5062125;28;19924;-65
2021/09/03 10:40:56;;;;;;;;;;;41.00;29.60;;;;;;5033023;28;19917;-64
2021/09/03 10:43:40;;;;;;;;;;;40.80;29.20;;;;;;5061262;28;20366;-64
2021/09/03 10:46:09;;;;;;;;;;;39.80;29.10;;;;;;5061259;28;19917;-65
2021/09/03 10:48:35;;;;;;;;;;;38.50;29.50;;;;;;5057679;28;19917;-63
2021/09/03 10:51:01;;;;;;;;;;;37.10;30.00;;;;;;5061908;28;19920;-64
2021/09/03 10:53:31;;;;;;;;;;;35.80;31.10;;;;;;5027697;28;19924;-63
2021/09/03 10:56:16;;;;;;;;;;;34.90;31.90;;;;;;5022976;28;20336;-64
2021/09/03 10:58:42;;;;;;;;;;;34.10;32.60;;;;;;5059389;28;20376;-68
2021/09/03 11:01:14;;;;;;;;;;;33.90;34.30;;;;;;5060653;28;19916;-68
2021/09/03 11:03:43;;;;;;;;;;;34.30;34.30;;;;;;5024858;28;20008;-68
2021/09/03 11:06:11;;;;;;;;;;;34.90;34.50;;;;;;5060206;28;20369;-69
2021/09/03 11:08:37;;;;;;;;;;;35.10;32.80;;;;;;5058052;28;20054;-68
2021/09/03 11:11:21;;;;;;;;;;;34.40;32.90;;;;;;5061071;28;19923;-69
2021/09/03 11:13:48;;;;;;;;;;;33.80;32.90;;;;;;5061537;28;20011;-68
2021/09/03 11:16:30;;;;;;;;;;;32.50;33.80;;;;;;5056892;28;19921;-66
2021/09/03 11:19:03;;;;;;;;;;;31.70;34.80;;;;;;5061040;28;20771;-66
2021/09/03 11:21:32;;;;;;;;;;;31.20;35.80;;;;;;5049756;28;19917;-69
2021/09/03 11:23:58;;;;;;;;;;;31.30;36.90;;;;;;5048488;28;19962;-68
2021/09/03 11:26:25;;;;;;;;;;;31.90;37.50;;;;;;5051271;28;19921;-67
2021/09/03 11:28:50;;;;;;;;;;;32.20;36.80;;;;;;5050467;28;19917;-68
2021/09/03 11:31:16;;;;;;;;;;;31.90;35.60;;;;;;5047523;28;19940;-70
2021/09/03 11:33:46;;;;;;;;;;;31.40;36.10;;;;;;5050096;28;20296;-68
2021/09/03 11:36:11;;;;;;;;;;;31.10;37.20;;;;;;5029354;28;20032;-69
2021/09/03 11:38:37;;;;;;;;;;;31.50;37.30;;;;;;5041637;28;20226;-69
2021/09/03 11:41:10;;;;;;;;;;;32.20;36.70;;;;;;5050084;28;19917;-67
2021/09/03 11:43:36;;;;;;;;;;;32.10;35.70;;;;;;5032439;28;19924;-67
2021/09/03 11:46:13;;;;;;;;;;;31.80;36.50;;;;;;5050304;28;19917;-67
2021/09/03 11:48:38;;;;;;;;;;;31.30;36.40;;;;;;5027872;28;19995;-68
2021/09/03 11:51:04;;;;;;;;;;;31.10;36.50;;;;;;5044684;28;20063;-67
2021/09/03 11:53:29;;;;;;;;;;;29.70;36.70;;;;;;5050371;28;19971;-67
2021/09/03 11:55:55;;;;;;;;;;;28.30;38.60;;;;;;5050456;28;19925;-68
2021/09/03 11:58:22;;;;;;;;;;;27.20;39.90;;;;;;5048281;28;19928;-68
2021/09/03 12:00:48;;;;;;;;;;;26.30;41.30;;;;;;5051385;28;19923;-67
2021/09/03 12:03:15;;;;;;;;;;;25.30;43.40;;;;;;5050003;28;19923;-67
2021/09/03 12:06:08;;;;;;;;;;;25.20;44.10;;;;;;5050014;28;19923;-68
2021/09/03 12:08:37;;;;;;;;;;;24.90;44.30;;;;;;5045064;28;19924;-66
2021/09/03 12:11:06;;;;;;;;;;;24.50;45.00;;;;;;5049984;28;19923;-66
2021/09/03 12:13:41;;;;;;;;;;;24.10;45.60;;;;;;5031524;28;20012;-65
2021/09/03 12:16:16;;;;;;;;;;;23.80;46.80;;;;;;5048141;28;19920;-69
2021/09/03 12:18:45;;;;;;;;;;;23.60;47.50;;;;;;5049564;28;19940;-67
2021/09/03 12:21:13;;;;;;;;;;;23.40;48.20;;;;;;5049693;28;20368;-68
2021/09/03 12:23:43;;;;;;;;;;;23.40;49.40;;;;;;5049893;28;19924;-67
2021/09/03 12:26:11;;;;;;;;;;;23.60;49.80;;;;;;5049996;28;20012;-67
2021/09/03 12:28:36;;;;;;;;;;;23.70;49.50;;;;;;5049306;28;20324;-69
2021/09/03 12:31:06;;;;;;;;;;;23.70;49.60;;;;;;5049315;28;19917;-66
2021/09/03 12:33:32;;;;;;;;;;;23.60;50.00;;;;;;5048063;28;20020;-67
2021/09/03 12:36:02;;;;;;;;;;;23.90;50.90;;;;;;5050145;28;20007;-67
2021/09/03 12:38:32;;;;;;;;;;;24.20;49.80;;;;;;5049027;28;19917;-68
2021/09/03 12:41:01;;;;;;;;;;;24.30;49.70;;;;;;5015785;28;19921;-68
2021/09/03 12:43:29;;;;;;;;;;;24.30;50.10;;;;;;5049285;28;19917;-68
2021/09/03 12:45:54;;;;;;;;;;;24.40;50.40;;;;;;5049799;28;19999;-67
2021/09/03 12:48:20;;;;;;;;;;;24.30;49.80;;;;;;5049688;28;20024;-69
2021/09/03 12:50:46;;;;;;;;;;;24.00;50.20;;;;;;5048453;28;19916;-67
2021/09/03 12:53:23;;;;;;;;;;;23.60;50.50;;;;;;5050290;28;19925;-67
2021/09/03 12:55:49;;;;;;;;;;;23.20;51.30;;;;;;5049557;28;19921;-67
2021/09/03 12:58:15;;;;;;;;;;;22.90;52.20;;;;;;5049658;28;20284;-69
2021/09/03 13:00:40;;;;;;;;;;;22.60;53.00;;;;;;5053685;28;19921;-69
2021/09/03 13:03:07;;;;;;;;;;;22.50;53.90;;;;;;5051561;28;19924;-67
2021/09/03 13:05:33;;;;;;;;;;;22.40;54.30;;;;;;5053156;28;19921;-68
2021/09/03 13:07:59;;;;;;;;;;;22.40;54.50;;;;;;5053510;28;19917;-68
2021/09/03 13:10:25;;;;;;;;;;;22.40;54.70;;;;;;5053539;28;20236;-68
2021/09/03 13:12:50;;;;;;;;;;;22.30;55.00;;;;;;5053731;28;19916;-68
2021/09/03 13:15:16;;;;;;;;;;;22.30;55.50;;;;;;5052723;28;20019;-68
2021/09/03 13:17:41;;;;;;;;;;;22.20;56.10;;;;;;5052971;28;19960;-67
2021/09/03 13:20:07;;;;;;;;;;;22.40;56.50;;;;;;5035962;28;19949;-66
2021/09/03 13:22:33;;;;;;;;;;;22.60;56.60;;;;;;5032097;28;19917;-67
2021/09/03 13:24:59;;;;;;;;;;;22.90;57.20;;;;;;5041169;28;19932;-69
2021/09/03 13:27:24;;;;;;;;;;;23.10;56.60;;;;;;5034582;28;19921;-68
2021/09/03 13:29:50;;;;;;;;;;;23.10;56.10;;;;;;5060759;28;19923;-67
2021/09/03 13:32:15;;;;;;;;;;;22.90;55.70;;;;;;5029055;28;19955;-67
2021/09/03 13:34:41;;;;;;;;;;;22.60;56.00;;;;;;5042656;28;19928;-67
2021/09/03 13:37:06;;;;;;;;;;;22.50;56.60;;;;;;5051969;28;19917;-67
2021/09/03 13:39:32;;;;;;;;;;;22.40;56.70;;;;;;5051028;28;20423;-68
2021/09/03 13:41:58;;;;;;;;;;;22.20;56.80;;;;;;5052938;28;20301;-66
2021/09/03 13:44:23;;;;;;;;;;;22.10;57.10;;;;;;5052738;28;20298;-68
2021/09/03 13:46:49;;;;;;;;;;;22.00;57.20;;;;;;5059730;28;20381;-67
2021/09/03 13:49:15;;;;;;;;;;;22.00;57.60;;;;;;5058162;28;19959;-67
2021/09/03 13:51:40;;;;;;;;;;;21.90;57.70;;;;;;5051713;28;19928;-67
2021/09/03 13:54:06;;;;;;;;;;;21.90;57.80;;;;;;5032332;28;19939;-69
2021/09/03 13:56:31;;;;;;;;;;;21.70;58.10;;;;;;5050327;28;20456;-68
2021/09/03 13:58:57;;;;;;;;;;;21.60;58.40;;;;;;5049992;28;19951;-67
2021/09/03 14:01:22;;;;;;;;;;;21.50;59.00;;;;;;5032000;28;19924;-67
2021/09/03 14:03:48;;;;;;;;;;;21.40;59.10;;;;;;5047765;28;19928;-68
2021/09/03 14:06:14;;;;;;;;;;;21.40;59.40;;;;;;5016417;28;20260;-68
2021/09/03 14:08:40;;;;;;;;;;;21.30;59.60;;;;;;5050507;28;19917;-66
2021/09/03 14:11:06;;;;;;;;;;;21.30;59.90;;;;;;5050375;28;19939;-68
2021/09/03 14:13:32;;;;;;;;;;;21.30;60.10;;;;;;5048272;28;19963;-66